createdAt,value
2018-05-14T00:01:14.234Z,96.20
2018-05-14T00:03:41.014Z,96.40
2018-05-14T00:06:08.407Z,97.20
2018-05-14T00:08:35.874Z,97.00
2018-05-14T00:11:03.340Z,96.40
2018-05-14T00:13:30.769Z,95.80
2018-05-14T00:15:57.479Z,95.90
2018-05-14T00:18:24.170Z,96.10
2018-05-14T00:20:51.591Z,96.90
2018-05-14T00:23:18.269Z,96.90
2018-05-14T00:25:44.959Z,97.30
2018-05-14T00:28:11.636Z,97.40
2018-05-14T00:30:39.056Z,96.40
2018-05-14T00:33:05.723Z,96.40
2018-05-14T00:35:33.156Z,96.00
2018-05-14T00:37:59.819Z,96.70
2018-05-14T00:40:27.247Z,94.60
2018-05-14T00:42:53.965Z,94.60
2018-05-14T00:45:20.683Z,92.10
2018-05-14T00:47:47.349Z,93.10
2018-05-14T00:50:14.044Z,94.20
2018-05-14T00:52:40.723Z,94.50
2018-05-14T00:55:16.560Z,95.00
2018-05-14T00:57:43.728Z,94.80
2018-05-14T01:00:10.518Z,94.60
2018-05-14T01:02:37.936Z,94.00
2018-05-14T01:05:04.696Z,94.00
2018-05-14T01:07:31.371Z,93.60
2018-05-14T01:09:58.069Z,94.10
2018-05-14T01:12:25.558Z,94.20
2018-05-14T01:14:52.241Z,93.40
2018-05-14T01:17:18.919Z,92.30
2018-05-14T01:19:46.356Z,91.00
2018-05-14T01:22:13.048Z,91.00
2018-05-14T01:24:39.778Z,90.40
2018-05-14T01:27:06.464Z,89.90
2018-05-14T01:29:33.220Z,89.10
2018-05-14T01:32:00.636Z,88.80
2018-05-14T01:34:27.308Z,88.80
2018-05-14T01:36:53.983Z,88.30
2018-05-14T01:39:20.686Z,88.50
2018-05-14T01:41:47.379Z,87.70
2018-05-14T01:44:14.059Z,89.30
2018-05-14T01:46:40.744Z,89.10
2018-05-14T01:49:07.434Z,88.70
2018-05-14T01:51:34.139Z,88.50
2018-05-14T01:54:00.829Z,91.50
2018-05-14T01:56:28.286Z,92.50
2018-05-14T01:58:55.732Z,91.70
2018-05-14T02:01:22.448Z,91.60
2018-05-14T02:03:49.143Z,92.50
2018-05-14T02:06:15.835Z,90.20
2018-05-14T02:08:42.519Z,90.10
2018-05-14T02:11:09.264Z,89.00
2018-05-14T02:13:36.719Z,91.20
2018-05-14T02:16:03.446Z,91.10
2018-05-14T02:18:30.149Z,92.10
2018-05-14T02:20:56.836Z,91.70
2018-05-14T02:23:23.508Z,92.60
2018-05-14T02:25:50.198Z,93.40
2018-05-14T02:28:16.886Z,93.10
2018-05-14T02:30:43.568Z,93.00
2018-05-14T02:33:10.991Z,92.90
2018-05-14T02:35:37.683Z,92.80
2018-05-14T02:38:04.379Z,93.10
2018-05-14T02:40:31.849Z,92.90
2018-05-14T02:42:59.305Z,91.80
2018-05-14T02:45:26.716Z,92.40
2018-05-14T02:47:53.417Z,92.40
2018-05-14T02:50:20.172Z,92.80
2018-05-14T02:52:47.585Z,92.40
2018-05-14T02:55:15.016Z,91.40
2018-05-14T02:57:41.706Z,91.40
2018-05-14T03:00:08.458Z,92.30
2018-05-14T03:02:35.139Z,92.40
2018-05-14T03:05:01.847Z,93.10
2018-05-14T03:07:28.594Z,93.80
2018-05-14T03:09:55.268Z,93.40
2018-05-14T03:12:23.123Z,94.20
2018-05-14T03:14:53.688Z,94.10
2018-05-14T03:17:21.115Z,93.80
2018-05-14T03:19:47.795Z,93.80
2018-05-14T03:22:14.476Z,93.30
2018-05-14T03:24:41.166Z,93.50
2018-05-14T03:27:07.878Z,93.80
2018-05-14T03:29:35.309Z,91.60
2018-05-14T03:32:01.991Z,91.50
2018-05-14T03:34:29.476Z,92.00
2018-05-14T03:36:56.170Z,92.00
2018-05-14T03:39:23.608Z,92.00
2018-05-14T03:41:50.284Z,92.00
2018-05-14T03:44:17.695Z,91.90
2018-05-14T03:46:44.403Z,91.90
2018-05-14T03:49:11.108Z,92.50
2018-05-14T03:51:38.523Z,91.80
2018-05-14T03:54:05.218Z,91.80
2018-05-14T03:56:31.905Z,92.20
2018-05-14T03:59:16.917Z,92.10
2018-05-14T04:05:16.457Z,91.30
2018-05-14T04:07:43.168Z,90.60
2018-05-14T04:10:10.623Z,90.60
2018-05-14T04:12:39.763Z,91.50
2018-05-14T04:15:06.458Z,91.50
2018-05-14T04:17:33.898Z,91.10
2018-05-14T04:20:00.576Z,91.10
2018-05-14T04:22:27.279Z,90.20
2018-05-14T04:24:54.016Z,90.40
2018-05-14T04:27:20.723Z,89.60
2018-05-14T04:29:47.396Z,88.50
2018-05-14T04:32:14.116Z,88.00
2018-05-14T04:34:40.803Z,88.70
2018-05-14T04:37:07.492Z,88.40
2018-05-14T04:39:34.186Z,88.40
2018-05-14T04:42:00.908Z,88.50
2018-05-14T04:44:28.338Z,89.00
2018-05-14T04:46:55.024Z,89.00
2018-05-14T04:49:21.706Z,88.30
2018-05-14T04:51:48.395Z,87.90
2018-05-14T04:54:15.111Z,86.00
2018-05-14T04:56:42.532Z,87.50
2018-05-14T04:59:09.281Z,87.40
2018-05-14T05:01:35.918Z,85.90
2018-05-14T05:04:02.630Z,86.00
2018-05-14T05:06:29.387Z,84.90
2018-05-14T05:08:56.067Z,85.10
2018-05-14T05:11:23.582Z,85.60
2018-05-14T05:13:50.232Z,85.70
2018-05-14T05:16:17.720Z,85.20
2018-05-14T05:18:45.159Z,83.80
2018-05-14T05:21:11.839Z,83.70
2018-05-14T05:23:38.520Z,84.10
2018-05-14T05:26:05.234Z,82.90
2018-05-14T05:28:31.935Z,83.50
2018-05-14T05:30:59.376Z,82.00
2018-05-14T05:33:26.851Z,80.10
2018-05-14T05:35:53.568Z,80.00
2018-05-14T05:38:21.034Z,79.70
2018-05-14T05:40:48.540Z,78.80
2018-05-14T05:43:15.224Z,78.80
2018-05-14T05:45:41.900Z,77.00
2018-05-14T05:48:08.605Z,76.50
2018-05-14T05:50:36.040Z,76.30
2018-05-14T05:53:02.779Z,76.20
2018-05-14T05:55:29.452Z,75.60
2018-05-14T05:57:56.220Z,72.30
2018-05-14T06:00:22.919Z,73.70
2018-05-14T06:02:50.352Z,71.50
2018-05-14T06:05:17.051Z,71.40
2018-05-14T06:07:43.749Z,69.90
2018-05-14T06:10:11.217Z,69.40
2018-05-14T06:12:38.631Z,69.90
2018-05-14T06:15:05.331Z,69.90
2018-05-14T06:17:32.041Z,70.00
2018-05-14T06:19:59.484Z,68.40
2018-05-14T06:22:26.241Z,68.30
2018-05-14T06:24:52.874Z,68.50
2018-05-14T06:27:20.293Z,65.70
2018-05-14T06:29:46.991Z,65.70
2018-05-14T06:32:13.696Z,66.00
2018-05-14T06:34:40.384Z,64.40
2018-05-14T06:37:07.072Z,67.50
2018-05-14T06:39:33.763Z,65.10
2018-05-14T06:42:00.479Z,64.60
2018-05-14T06:44:27.240Z,65.20
2018-05-14T06:46:54.680Z,64.80
2018-05-14T06:49:21.372Z,64.70
2018-05-14T06:51:48.055Z,66.20
2018-05-14T06:54:14.734Z,65.60
2018-05-14T06:56:41.444Z,67.30
2018-05-14T06:59:08.144Z,67.00
2018-05-14T07:01:36.027Z,67.00
2018-05-14T07:04:02.829Z,67.10
2018-05-14T07:06:29.772Z,66.10
2018-05-14T07:08:56.754Z,65.20
2018-05-14T07:11:23.742Z,66.70
2018-05-14T07:13:50.719Z,67.50
2018-05-14T07:16:17.679Z,65.50
2018-05-14T07:18:45.419Z,65.30
2018-05-14T07:21:39.294Z,65.30
2018-05-14T07:24:06.319Z,63.00
2018-05-14T07:26:33.319Z,64.90
2018-05-14T07:29:00.964Z,64.80
2018-05-14T07:31:28.704Z,64.30
2018-05-14T07:33:55.732Z,64.20
2018-05-14T07:36:22.739Z,63.40
2018-05-14T07:38:50.427Z,60.80
2018-05-14T07:41:17.447Z,60.60
2018-05-14T07:43:45.219Z,60.10
2018-05-14T07:46:12.199Z,60.10
2018-05-14T07:48:39.166Z,59.70
2018-05-14T07:51:06.202Z,59.10
2018-05-14T07:53:33.162Z,59.40
2018-05-14T07:56:00.871Z,59.00
2018-05-14T07:58:27.853Z,59.00
2018-05-14T08:00:54.822Z,61.20
2018-05-14T08:03:22.594Z,61.00
2018-05-14T08:05:50.319Z,59.80
2018-05-14T08:08:17.332Z,59.70
2018-05-14T08:10:44.280Z,60.80
2018-05-14T08:13:11.239Z,60.30
2018-05-14T08:15:38.225Z,60.40
2018-05-14T08:18:06.017Z,57.30
2018-05-14T08:20:35.400Z,57.20
2018-05-14T08:23:03.115Z,55.00
2018-05-14T08:25:30.080Z,54.90
2018-05-14T08:27:57.072Z,57.00
2018-05-14T08:30:24.031Z,57.90
2018-05-14T08:32:51.036Z,56.20
2018-05-14T08:35:18.750Z,56.60
2018-05-14T08:37:45.740Z,56.70
2018-05-14T08:40:13.465Z,57.10
2018-05-14T08:42:40.446Z,57.10
2018-05-14T08:45:08.184Z,57.90
2018-05-14T08:47:35.194Z,57.80
2018-05-14T08:50:02.166Z,59.10
2018-05-14T08:52:29.152Z,56.80
2018-05-14T08:54:56.871Z,55.50
2018-05-14T08:57:23.811Z,55.50
2018-05-14T08:59:50.767Z,52.80
2018-05-14T09:02:17.771Z,53.00
2018-05-14T09:04:44.752Z,52.80
2018-05-14T09:07:11.731Z,48.80
2018-05-14T09:09:38.684Z,52.10
2018-05-14T09:12:06.379Z,50.40
2018-05-14T09:14:33.367Z,50.20
2018-05-14T09:17:00.337Z,50.60
2018-05-14T09:19:28.802Z,49.90
2018-05-14T09:21:56.597Z,50.90
2018-05-14T09:24:23.578Z,50.90
2018-05-14T09:26:50.566Z,52.20
2018-05-14T09:29:18.260Z,51.90
2018-05-14T09:31:45.224Z,51.80
2018-05-14T09:34:12.186Z,51.70
2018-05-14T09:36:39.151Z,50.70
2018-05-14T09:39:06.173Z,51.10
2018-05-14T09:41:33.169Z,50.70
2018-05-14T09:44:00.868Z,53.20
2018-05-14T09:46:27.884Z,53.10
2018-05-14T09:48:54.896Z,55.00
2018-05-14T09:51:21.886Z,55.60
2018-05-14T09:53:48.901Z,59.20
2018-05-14T09:56:16.623Z,61.80
2018-05-14T09:58:43.641Z,61.70
2018-05-14T10:01:10.583Z,66.70
2018-05-14T10:03:37.525Z,64.60
2018-05-14T10:06:04.532Z,63.90
2018-05-14T10:08:31.504Z,66.90
2018-05-14T10:10:59.224Z,71.10
2018-05-14T10:13:26.213Z,70.90
2018-05-14T10:15:53.948Z,70.20
2018-05-14T10:18:20.911Z,70.20
2018-05-14T10:20:49.484Z,75.70
2018-05-14T10:23:18.779Z,74.30
2018-05-14T10:25:45.761Z,74.20
2018-05-14T10:28:12.724Z,72.80
2018-05-14T10:30:40.419Z,66.30
2018-05-14T10:33:07.371Z,66.30
2018-05-14T10:35:34.366Z,63.60
2018-05-14T10:38:01.334Z,61.90
2018-05-14T10:40:28.356Z,60.50
2018-05-14T10:42:55.369Z,56.00
2018-05-14T10:45:23.087Z,56.20
2018-05-14T10:47:50.079Z,56.30
2018-05-14T10:50:17.806Z,55.30
2018-05-14T10:52:44.812Z,55.40
2018-05-14T10:55:11.800Z,53.70
2018-05-14T10:57:38.758Z,49.30
2018-05-14T11:00:05.811Z,54.00
2018-05-14T11:02:32.751Z,50.30
2018-05-14T11:04:59.727Z,54.20
2018-05-14T11:07:27.431Z,52.80
2018-05-14T11:09:54.389Z,53.50
2018-05-14T11:12:21.379Z,51.30
2018-05-14T11:14:48.369Z,57.20
2018-05-14T11:17:15.324Z,51.20
2018-05-14T11:19:42.364Z,53.00
2018-05-14T11:22:09.369Z,52.30
2018-05-14T11:24:40.153Z,51.20
2018-05-14T11:27:07.124Z,52.60
2018-05-14T11:29:34.821Z,49.90
2018-05-14T11:32:01.822Z,49.80
2018-05-14T11:34:28.746Z,48.60
2018-05-14T11:36:55.712Z,47.00
2018-05-14T11:39:22.684Z,44.40
2018-05-14T11:41:49.656Z,48.00
2018-05-14T11:44:16.654Z,42.20
2018-05-14T11:46:44.356Z,41.10
2018-05-14T11:49:11.337Z,41.10
2018-05-14T11:51:38.357Z,40.40
2018-05-14T11:54:05.337Z,43.50
2018-05-14T11:56:32.291Z,41.60
2018-05-14T11:58:59.364Z,46.00
2018-05-14T12:01:26.336Z,43.00
2018-05-14T12:03:53.326Z,47.70
2018-05-14T12:06:20.318Z,50.20
2018-05-14T12:08:47.351Z,47.90
2018-05-14T12:11:14.373Z,44.00
2018-05-14T12:13:42.136Z,46.50
2018-05-14T12:16:09.974Z,47.50
2018-05-14T12:18:36.923Z,47.50
2018-05-14T12:21:03.902Z,43.50
2018-05-14T12:23:32.389Z,39.50
2018-05-14T12:26:00.164Z,39.50
2018-05-14T12:28:27.164Z,39.60
2018-05-14T12:30:54.156Z,41.70
2018-05-14T12:33:21.209Z,42.30
2018-05-14T12:35:48.186Z,39.40
2018-05-14T12:38:15.182Z,42.10
2018-05-14T12:40:42.171Z,42.90
2018-05-14T12:43:09.149Z,39.80
2018-05-14T12:45:36.859Z,42.10
2018-05-14T12:48:03.881Z,42.00
2018-05-14T12:50:31.828Z,41.90
2018-05-14T12:52:58.791Z,42.10
2018-05-14T12:55:25.723Z,44.00
2018-05-14T12:57:53.452Z,47.40
2018-05-14T13:00:20.411Z,47.40
2018-05-14T13:02:47.419Z,41.50
2018-05-14T13:05:14.391Z,44.50
2018-05-14T13:07:41.363Z,44.20
2018-05-14T13:10:09.111Z,41.70
2018-05-14T13:12:36.096Z,41.50
2018-05-14T13:15:03.195Z,39.10
2018-05-14T13:17:30.163Z,43.40
2018-05-14T13:19:57.873Z,44.30
2018-05-14T13:22:24.889Z,44.20
2018-05-14T13:24:51.863Z,43.80
2018-05-14T13:27:19.639Z,45.40
2018-05-14T13:29:46.655Z,43.30
2018-05-14T13:32:13.669Z,44.60
2018-05-14T13:34:41.444Z,43.60
2018-05-14T13:37:08.407Z,43.60
2018-05-14T13:39:35.437Z,41.50
2018-05-14T13:42:03.171Z,43.70
2018-05-14T13:44:30.222Z,43.60
2018-05-14T13:46:57.179Z,46.10
2018-05-14T13:49:25.025Z,46.60
2018-05-14T13:51:51.989Z,46.60
2018-05-14T13:54:19.706Z,43.20
2018-05-14T13:56:46.657Z,43.20
2018-05-14T13:59:13.614Z,42.90
2018-05-14T14:01:40.620Z,45.30
2018-05-14T14:04:07.567Z,43.60
2018-05-14T14:06:34.560Z,43.50
2018-05-14T14:09:01.547Z,42.50
2018-05-14T14:11:28.553Z,43.90
2018-05-14T14:13:55.520Z,39.80
2018-05-14T14:16:22.665Z,42.30
2018-05-14T14:18:50.408Z,44.20
2018-05-14T14:21:17.347Z,44.30
2018-05-14T14:23:44.463Z,44.50
2018-05-14T14:26:11.384Z,42.00
2018-05-14T14:28:38.435Z,40.10
2018-05-14T14:31:05.455Z,39.70
2018-05-14T14:33:33.184Z,42.90
2018-05-14T14:36:00.241Z,42.80
2018-05-14T14:38:27.273Z,43.80
2018-05-14T14:40:55.251Z,41.20
2018-05-14T14:43:22.480Z,41.50
2018-05-14T14:45:49.497Z,41.00
2018-05-14T14:48:16.591Z,41.70
2018-05-14T14:50:43.609Z,41.90
2018-05-14T14:53:10.656Z,45.10
2018-05-14T14:55:37.679Z,43.60
2018-05-14T14:58:04.432Z,42.60
2018-05-14T15:00:31.159Z,43.30
2018-05-14T15:02:58.625Z,43.30
2018-05-14T15:05:25.332Z,43.30
2018-05-14T15:07:52.020Z,40.00
2018-05-14T15:10:18.787Z,40.30
2018-05-14T15:12:45.506Z,43.30
2018-05-14T15:15:12.945Z,47.70
2018-05-14T15:17:39.625Z,47.70
2018-05-14T15:20:06.381Z,49.50
2018-05-14T15:22:33.087Z,51.00
2018-05-14T15:24:59.781Z,51.70
2018-05-14T15:27:26.563Z,52.90
2018-05-14T15:29:53.292Z,52.70
2018-05-14T15:32:19.979Z,52.20
2018-05-14T15:34:46.912Z,52.90
2018-05-14T15:37:13.627Z,52.70
2018-05-14T15:39:40.345Z,52.70
2018-05-14T15:42:07.077Z,53.70
2018-05-14T15:44:33.795Z,55.30
2018-05-14T15:47:01.242Z,55.00
2018-05-14T15:49:28.691Z,55.60
2018-05-14T15:51:55.459Z,55.60
2018-05-14T15:54:22.180Z,55.80
2018-05-14T15:56:48.917Z,55.50
2018-05-14T15:59:15.603Z,55.90
2018-05-14T16:01:42.306Z,57.20
2018-05-14T16:04:09.762Z,57.90
2018-05-14T16:06:37.352Z,58.80
2018-05-14T16:09:05.028Z,58.80
2018-05-14T16:11:31.756Z,60.30
2018-05-14T16:13:58.495Z,60.50
2018-05-14T16:16:25.224Z,61.70
2018-05-14T16:18:51.919Z,61.00
2018-05-14T16:21:18.609Z,60.20
2018-05-14T16:23:45.374Z,58.40
2018-05-14T16:26:12.127Z,57.90
2018-05-14T16:28:38.854Z,56.30
2018-05-14T16:31:05.584Z,56.50
2018-05-14T16:33:32.296Z,58.00
2018-05-14T16:35:59.019Z,58.40
2018-05-14T16:38:26.499Z,58.60
2018-05-14T16:40:53.244Z,58.60
2018-05-14T16:43:19.952Z,58.80
2018-05-14T16:45:47.417Z,60.10
2018-05-14T16:48:14.111Z,60.00
2018-05-14T16:50:40.871Z,59.40
2018-05-14T16:53:07.564Z,60.50
2018-05-14T16:55:34.284Z,60.20
2018-05-14T16:58:01.030Z,57.50
2018-05-14T17:00:28.476Z,56.40
2018-05-14T17:02:55.167Z,56.40
2018-05-14T17:05:21.913Z,58.20
2018-05-14T17:07:48.652Z,57.70
2018-05-14T17:10:15.445Z,57.60
2018-05-14T17:12:42.085Z,58.80
2018-05-14T17:15:08.800Z,60.10
2018-05-14T17:17:35.542Z,58.30
2018-05-14T17:20:02.289Z,60.40
2018-05-14T17:22:29.003Z,61.60
2018-05-14T17:24:56.447Z,61.90
2018-05-14T17:27:23.157Z,61.40
2018-05-14T17:29:49.880Z,62.70
2018-05-14T17:32:16.602Z,63.60
2018-05-14T17:34:43.279Z,62.80
2018-05-14T17:37:10.007Z,62.60
2018-05-14T17:39:36.699Z,63.10
2018-05-14T17:42:04.177Z,62.70
2018-05-14T17:44:30.923Z,62.60
2018-05-14T17:46:57.682Z,61.90
2018-05-14T17:49:24.377Z,61.50
2018-05-14T17:51:51.842Z,61.00
2018-05-14T17:54:19.316Z,60.50
2018-05-14T17:56:46.025Z,60.50
2018-05-14T17:59:13.452Z,61.00
2018-05-14T18:01:42.877Z,61.00
2018-05-14T18:04:11.046Z,61.20
2018-05-14T18:06:37.784Z,61.20
2018-05-14T18:09:05.284Z,61.10
2018-05-14T18:11:32.047Z,61.80
2018-05-14T18:13:58.729Z,61.20
2018-05-14T18:16:25.483Z,61.70
2018-05-14T18:18:52.191Z,61.60
2018-05-14T18:21:24.959Z,61.10
2018-05-14T18:23:51.654Z,62.30
2018-05-14T18:26:18.404Z,61.50
2018-05-14T18:28:49.188Z,62.50
2018-05-14T18:31:21.951Z,62.20
2018-05-14T18:34:02.099Z,63.80
2018-05-14T18:36:28.824Z,63.80
2018-05-14T18:38:55.525Z,63.10
2018-05-14T18:41:22.939Z,61.90
2018-05-14T18:43:49.623Z,61.90
2018-05-14T18:46:16.311Z,62.10
2018-05-14T18:48:43.057Z,62.20
2018-05-14T18:51:09.762Z,62.50
2018-05-14T18:53:36.454Z,62.70
2018-05-14T18:56:03.297Z,63.50
2018-05-14T18:58:30.754Z,64.20
2018-05-14T19:00:58.238Z,65.10
2018-05-14T19:03:24.940Z,65.10
2018-05-14T19:05:51.690Z,65.40
2018-05-14T19:08:18.448Z,66.00
2018-05-14T19:10:51.861Z,66.70
2018-05-14T19:13:18.612Z,66.70
2018-05-14T19:15:51.350Z,67.30
2018-05-14T19:18:18.783Z,68.40
2018-05-14T19:20:45.497Z,68.50
2018-05-14T19:23:18.285Z,68.80
2018-05-14T19:25:44.985Z,69.10
2018-05-14T19:28:17.939Z,69.40
2018-05-14T19:30:44.597Z,70.30
2018-05-14T19:33:12.104Z,71.60
2018-05-14T19:35:44.835Z,71.60
2018-05-14T19:38:12.339Z,73.30
2018-05-14T19:40:45.047Z,73.30
2018-05-14T19:43:11.904Z,74.40
2018-05-14T19:45:38.668Z,75.40
2018-05-14T19:48:05.395Z,75.60
2018-05-14T19:50:32.131Z,75.70
2018-05-14T19:52:59.667Z,76.50
2018-05-14T19:55:26.370Z,76.50
2018-05-14T19:57:53.080Z,77.10
2018-05-14T20:00:19.780Z,76.50
2018-05-14T20:02:46.487Z,76.90
2018-05-14T20:05:13.211Z,77.40
2018-05-14T20:07:39.959Z,77.10
2018-05-14T20:10:06.684Z,77.40
2018-05-14T20:12:34.367Z,77.50
2018-05-14T20:15:01.099Z,78.00
2018-05-14T20:17:27.817Z,78.70
2018-05-14T20:19:54.525Z,78.80
2018-05-14T20:22:21.993Z,79.10
2018-05-14T20:24:49.479Z,78.90
2018-05-14T20:27:16.219Z,78.90
2018-05-14T20:29:42.947Z,78.90
2018-05-14T20:32:09.692Z,78.70
2018-05-14T20:34:36.380Z,79.10
2018-05-14T20:37:03.132Z,78.80
2018-05-14T20:39:29.871Z,78.90
2018-05-14T20:41:56.577Z,79.10
2018-05-14T20:44:23.327Z,79.40
2018-05-14T20:46:50.029Z,79.70
2018-05-14T20:49:16.744Z,79.60
2018-05-14T20:51:43.981Z,79.80
2018-05-14T20:54:11.561Z,80.50
2018-05-14T20:56:38.379Z,81.20
2018-05-14T20:59:05.924Z,82.20
2018-05-14T21:01:32.691Z,81.50
2018-05-14T21:04:00.232Z,82.20
2018-05-14T21:06:27.385Z,82.20
2018-05-14T21:08:54.907Z,83.10
2018-05-14T21:11:21.647Z,83.10
2018-05-14T21:13:48.344Z,82.80
2018-05-14T21:16:15.797Z,82.60
2018-05-14T21:18:43.271Z,83.00
2018-05-14T21:21:10.081Z,82.30
2018-05-14T21:23:37.543Z,82.60
2018-05-14T21:26:04.996Z,82.10
2018-05-14T21:28:32.531Z,82.00
2018-05-14T21:31:00.214Z,81.90
2018-05-14T21:33:28.231Z,81.80
2018-05-14T21:35:55.022Z,81.70
2018-05-14T21:38:22.544Z,82.00
2018-05-14T21:40:49.325Z,82.00
2018-05-14T21:43:16.863Z,81.70
2018-05-14T21:45:43.631Z,81.70
2018-05-14T21:48:11.171Z,82.00
2018-05-14T21:50:38.748Z,82.20
2018-05-14T21:53:05.560Z,82.10
2018-05-14T21:55:32.354Z,82.10
2018-05-14T21:57:59.361Z,82.00
2018-05-14T22:00:26.931Z,82.40
2018-05-14T22:02:55.126Z,82.40
2018-05-14T22:05:21.893Z,82.50
2018-05-14T22:07:48.686Z,83.00
2018-05-14T22:10:16.199Z,83.40
2018-05-14T22:12:42.968Z,83.40
2018-05-14T22:15:09.779Z,83.80
2018-05-14T22:17:36.569Z,83.80
2018-05-14T22:20:04.117Z,83.90
2018-05-14T22:22:31.666Z,84.00
2018-05-14T22:24:59.171Z,83.20
2018-05-14T22:27:25.984Z,83.20
2018-05-14T22:29:53.544Z,82.70
2018-05-14T22:32:21.063Z,82.80
2018-05-14T22:34:47.854Z,82.80
2018-05-14T22:37:15.011Z,83.00
2018-05-14T22:39:41.820Z,82.60
2018-05-14T22:42:08.527Z,82.00
2018-05-14T22:44:35.216Z,80.60
2018-05-14T22:47:01.939Z,79.20
2018-05-14T22:49:28.657Z,79.30
2018-05-14T22:51:55.374Z,80.00
2018-05-14T22:54:35.271Z,80.00
2018-05-14T22:57:02.797Z,80.60
2018-05-14T22:59:29.523Z,80.60
2018-05-14T23:01:56.219Z,80.70
2018-05-14T23:04:22.919Z,81.20
2018-05-14T23:06:49.619Z,80.80
2018-05-14T23:09:16.307Z,80.70
2018-05-14T23:11:43.019Z,80.60
2018-05-14T23:14:09.719Z,80.60
2018-05-14T23:16:36.427Z,81.10
2018-05-14T23:19:03.118Z,81.50
2018-05-14T23:21:29.826Z,82.20
2018-05-14T23:23:57.264Z,82.80
2018-05-14T23:26:23.953Z,82.80
2018-05-14T23:28:50.676Z,83.00
2018-05-14T23:31:17.430Z,83.00
2018-05-14T23:33:44.651Z,83.50
2018-05-14T23:36:11.344Z,83.90
2018-05-14T23:38:38.052Z,84.20
2018-05-14T23:41:04.744Z,84.30
2018-05-14T23:43:31.441Z,84.30
2018-05-14T23:45:58.157Z,84.20
2018-05-14T23:48:24.832Z,84.50
2018-05-14T23:50:51.766Z,84.30
2018-05-14T23:53:18.448Z,84.40
2018-05-14T23:55:45.886Z,85.90
2018-05-14T23:58:12.691Z,85.30
